createdAt,value
2022-09-04T00:00:18.790Z,3.00
2022-09-04T00:03:17.358Z,3.22
2022-09-04T00:06:12.447Z,2.90
2022-09-04T00:09:11.079Z,4.35
2022-09-04T00:12:11.244Z,3.03
2022-09-04T00:15:13.634Z,3.10
2022-09-04T00:18:08.242Z,3.13
2022-09-04T00:21:07.259Z,2.90
2022-09-04T00:23:57.542Z,2.92
2022-09-04T00:27:10.341Z,3.20
2022-09-04T00:30:03.324Z,3.00
2022-09-04T00:32:57.909Z,3.17
2022-09-04T00:35:59.832Z,3.10
2022-09-04T00:38:53.803Z,3.50
2022-09-04T00:42:02.973Z,2.97
2022-09-04T00:45:07.752Z,3.38
2022-09-04T00:48:08.315Z,3.28
2022-09-04T00:51:17.063Z,3.53
2022-09-04T00:54:08.904Z,3.20
2022-09-04T00:57:39.500Z,3.20
2022-09-04T01:00:27.972Z,2.63
2022-09-04T01:03:34.489Z,3.00
2022-09-04T01:06:36.016Z,3.92
2022-09-04T01:09:31.571Z,3.40
2022-09-04T01:12:51.346Z,3.03
2022-09-04T01:15:55.486Z,3.03
2022-09-04T01:18:56.343Z,3.00
2022-09-04T01:21:50.661Z,3.22
2022-09-04T01:24:54.027Z,3.20
2022-09-04T01:28:03.448Z,2.90
2022-09-04T01:31:00.336Z,3.10
2022-09-04T01:33:54.910Z,3.00
2022-09-04T01:36:55.761Z,3.40
2022-09-04T01:39:46.581Z,3.20
2022-09-04T01:42:47.638Z,3.50
2022-09-04T01:45:57.521Z,3.22
2022-09-04T01:51:48.519Z,2.97
2022-09-04T01:54:43.256Z,3.27
2022-09-04T01:57:34.834Z,3.85
2022-09-04T02:00:23.167Z,3.38
2022-09-04T02:03:29.033Z,3.17
2022-09-04T02:06:38.426Z,3.00
2022-09-04T02:09:42.595Z,3.08
2022-09-04T02:12:51.120Z,3.20
2022-09-04T02:15:49.322Z,2.72
2022-09-04T02:18:36.044Z,3.50
2022-09-04T02:21:41.021Z,2.75
2022-09-04T02:24:37.178Z,3.00
2022-09-04T02:27:45.696Z,3.10
2022-09-04T02:31:03.747Z,3.17
2022-09-04T02:33:52.953Z,2.88
2022-09-04T02:36:53.324Z,3.17
2022-09-04T02:39:58.568Z,2.95
2022-09-04T02:42:44.413Z,2.95
2022-09-04T02:45:42.224Z,2.85
2022-09-04T02:49:02.267Z,3.08
2022-09-04T02:52:13.480Z,3.17
2022-09-04T02:55:32.109Z,2.85
2022-09-04T02:58:36.604Z,2.90
2022-09-04T03:01:29.278Z,2.72
2022-09-04T03:04:42.880Z,2.90
2022-09-04T03:07:45.654Z,3.33
2022-09-04T03:10:53.277Z,2.65
2022-09-04T03:14:01.509Z,2.88
2022-09-04T03:17:08.488Z,3.50
2022-09-04T03:20:00.576Z,3.17
2022-09-04T03:23:03.985Z,2.72
2022-09-04T03:26:11.049Z,3.20
2022-09-04T03:29:10.012Z,3.20
2022-09-04T03:32:15.947Z,3.05
2022-09-04T03:35:26.812Z,2.83
2022-09-04T03:41:39.782Z,2.80
2022-09-04T03:44:32.464Z,3.45
2022-09-04T03:47:27.393Z,3.47
2022-09-04T03:50:39.437Z,3.33
2022-09-04T03:53:41.490Z,3.10
2022-09-04T03:56:51.021Z,3.78
2022-09-04T04:00:06.946Z,3.25
2022-09-04T04:03:38.787Z,2.97
2022-09-04T04:06:44.347Z,3.03
2022-09-04T04:09:55.670Z,2.90
2022-09-04T04:13:21.690Z,3.10
2022-09-04T04:16:28.224Z,2.70
2022-09-04T04:19:35.304Z,2.83
2022-09-04T04:22:59.207Z,2.90
2022-09-04T04:26:18.387Z,3.50
2022-09-04T04:29:37.009Z,2.88
2022-09-04T04:32:47.410Z,2.72
2022-09-04T04:39:12.858Z,3.15
2022-09-04T04:42:11.561Z,2.83
2022-09-04T04:45:21.490Z,3.03
2022-09-04T04:51:39.679Z,3.00
2022-09-04T04:54:37.440Z,3.13
2022-09-04T04:57:37.862Z,3.20
2022-09-04T05:00:42.948Z,3.33
2022-09-04T05:03:35.095Z,3.03
2022-09-04T05:06:49.106Z,3.00
2022-09-04T05:09:46.178Z,3.00
2022-09-04T05:12:59.075Z,3.10
2022-09-04T05:16:24.140Z,3.50
2022-09-04T05:19:20.873Z,3.15
2022-09-04T05:22:23.149Z,3.30
2022-09-04T05:25:31.136Z,3.28
2022-09-04T05:28:28.400Z,3.25
2022-09-04T05:31:24.511Z,3.05
2022-09-04T05:34:49.020Z,3.08
2022-09-04T05:37:46.952Z,3.00
2022-09-04T05:41:04.141Z,2.70
2022-09-04T05:44:08.920Z,3.20
2022-09-04T05:47:06.122Z,3.15
2022-09-04T05:50:12.984Z,3.10
2022-09-04T05:53:37.898Z,3.03
2022-09-04T05:56:50.614Z,3.10
2022-09-04T06:00:06.038Z,3.50
2022-09-04T06:03:29.919Z,3.35
2022-09-04T06:06:44.762Z,3.10
2022-09-04T06:09:33.534Z,4.15
2022-09-04T06:12:28.177Z,2.70
2022-09-04T06:15:50.579Z,3.13
2022-09-04T06:18:49.258Z,3.50
2022-09-04T06:21:53.703Z,3.00
2022-09-04T06:25:05.225Z,2.92
2022-09-04T06:28:12.347Z,3.05
2022-09-04T06:31:16.226Z,2.80
2022-09-04T06:34:13.997Z,2.75
2022-09-04T06:37:18.613Z,2.78
2022-09-04T06:40:46.073Z,3.17
2022-09-04T06:43:49.490Z,2.78
2022-09-04T06:46:42.038Z,2.95
2022-09-04T06:49:42.652Z,3.38
2022-09-04T06:53:04.298Z,3.00
2022-09-04T06:56:14.825Z,2.90
2022-09-04T06:59:01.565Z,2.72
2022-09-04T07:02:17.877Z,2.63
2022-09-04T07:05:18.584Z,2.90
2022-09-04T07:08:43.237Z,2.80
2022-09-04T07:11:50.375Z,2.90
2022-09-04T07:15:14.767Z,2.85
2022-09-04T07:18:10.422Z,3.00
2022-09-04T07:21:11.175Z,3.28
2022-09-04T07:24:26.809Z,3.17
2022-09-04T07:27:23.758Z,2.85
2022-09-04T07:30:11.912Z,3.33
2022-09-04T07:33:24.587Z,2.70
2022-09-04T07:36:31.873Z,2.72
2022-09-04T07:39:36.067Z,2.65
2022-09-04T07:42:36.584Z,2.88
2022-09-04T07:45:25.956Z,2.72
2022-09-04T07:48:22.183Z,3.08
2022-09-04T07:51:22.075Z,2.88
2022-09-04T07:54:29.660Z,2.67
2022-09-04T07:57:24.127Z,2.63
2022-09-04T08:00:21.067Z,2.50
2022-09-04T08:03:29.856Z,2.78
2022-09-04T08:06:37.625Z,2.53
2022-09-04T08:09:37.707Z,2.85
2022-09-04T08:13:12.204Z,2.22
2022-09-04T08:16:11.727Z,2.45
2022-09-04T08:19:15.640Z,2.45
2022-09-04T08:22:04.945Z,2.55
2022-09-04T08:25:27.451Z,2.53
2022-09-04T08:28:20.030Z,2.88
2022-09-04T08:31:24.286Z,2.45
2022-09-04T08:34:25.460Z,2.65
2022-09-04T08:37:28.306Z,2.45
2022-09-04T08:40:44.588Z,2.40
2022-09-04T08:43:44.376Z,2.38
2022-09-04T08:49:38.474Z,2.30
2022-09-04T08:52:45.370Z,2.53
2022-09-04T08:55:41.004Z,2.15
2022-09-04T08:58:37.174Z,2.45
2022-09-04T09:01:31.353Z,2.72
2022-09-04T09:04:48.281Z,2.30
2022-09-04T09:07:48.149Z,2.42
2022-09-04T09:10:42.867Z,2.25
2022-09-04T09:13:57.698Z,2.25
2022-09-04T09:17:29.978Z,2.13
2022-09-04T09:20:30.073Z,2.58
2022-09-04T09:23:22.697Z,2.08
2022-09-04T09:26:24.506Z,2.47
2022-09-04T09:29:45.033Z,2.33
2022-09-04T09:32:38.343Z,2.30
2022-09-04T09:35:42.380Z,2.40
2022-09-04T09:38:48.649Z,2.50
2022-09-04T09:41:51.248Z,2.50
2022-09-04T09:44:45.937Z,2.38
2022-09-04T09:48:09.755Z,2.13
2022-09-04T09:51:38.939Z,2.40
2022-09-04T09:54:56.560Z,2.15
2022-09-04T09:58:17.709Z,1.65
2022-09-04T10:01:33.151Z,1.65
2022-09-04T10:04:46.893Z,1.50
2022-09-04T10:08:01.323Z,1.73
2022-09-04T10:11:10.269Z,1.60
2022-09-04T10:14:31.739Z,1.55
2022-09-04T10:17:32.010Z,1.63
2022-09-04T10:20:50.730Z,1.52
2022-09-04T10:24:14.954Z,1.35
2022-09-04T10:27:19.231Z,1.50
2022-09-04T10:30:17.659Z,1.20
2022-09-04T10:33:21.446Z,1.27
2022-09-04T10:36:34.475Z,1.33
2022-09-04T10:40:03.473Z,1.25
2022-09-04T10:43:09.669Z,1.42
2022-09-04T10:46:01.496Z,1.20
2022-09-04T10:48:59.310Z,1.48
2022-09-04T10:52:10.056Z,1.27
2022-09-04T10:55:07.711Z,1.10
2022-09-04T10:58:17.117Z,1.30
2022-09-04T11:01:05.705Z,1.10
2022-09-04T11:04:27.155Z,1.17
2022-09-04T11:07:41.588Z,1.30
2022-09-04T11:10:53.326Z,1.17
2022-09-04T11:14:06.536Z,1.50
2022-09-04T11:17:13.356Z,1.40
2022-09-04T11:20:17.687Z,1.10
2022-09-04T11:23:07.245Z,1.70
2022-09-04T11:26:05.965Z,1.52
2022-09-04T11:29:00.936Z,1.40
2022-09-04T11:32:25.111Z,1.30
2022-09-04T11:35:45.310Z,1.70
2022-09-04T11:38:44.898Z,1.30
2022-09-04T11:41:53.270Z,1.27
2022-09-04T11:45:08.014Z,1.40
2022-09-04T11:48:08.820Z,1.20
2022-09-04T11:51:04.796Z,1.42
2022-09-04T11:54:17.159Z,1.50
2022-09-04T11:57:38.070Z,1.33
2022-09-04T12:00:23.417Z,1.38
2022-09-04T12:03:14.909Z,1.23
2022-09-04T12:06:29.724Z,1.45
2022-09-04T12:09:54.643Z,1.33
2022-09-04T12:13:15.135Z,1.23
2022-09-04T12:16:29.464Z,1.10
2022-09-04T12:19:29.970Z,1.80
2022-09-04T12:22:26.087Z,1.30
2022-09-04T12:25:37.666Z,1.00
2022-09-04T12:28:42.065Z,1.05
2022-09-04T12:31:52.925Z,1.25
2022-09-04T12:35:08.182Z,1.00
2022-09-04T12:38:41.250Z,0.90
2022-09-04T12:41:54.414Z,1.17
2022-09-04T12:45:21.980Z,1.15
2022-09-04T12:48:23.522Z,1.20
2022-09-04T12:51:19.571Z,1.20
2022-09-04T12:54:46.329Z,1.05
2022-09-04T12:57:42.241Z,1.30
2022-09-04T13:00:40.736Z,1.05
2022-09-04T13:03:59.805Z,1.10
2022-09-04T13:07:15.949Z,1.10
2022-09-04T13:10:07.978Z,1.00
2022-09-04T13:13:21.093Z,1.10
2022-09-04T13:16:17.142Z,1.35
2022-09-04T13:19:30.945Z,0.95
2022-09-04T13:22:39.388Z,1.33
2022-09-04T13:25:49.228Z,1.27
2022-09-04T13:28:45.240Z,1.00
2022-09-04T13:31:50.625Z,1.30
2022-09-04T13:34:45.958Z,1.35
2022-09-04T13:37:55.077Z,1.08
2022-09-04T13:41:22.250Z,1.20
2022-09-04T13:44:19.657Z,1.30
2022-09-04T13:47:11.892Z,1.10
2022-09-04T13:50:09.920Z,1.30
2022-09-04T13:53:04.180Z,1.15
2022-09-04T13:55:54.448Z,1.35
2022-09-04T13:58:51.230Z,1.00
2022-09-04T14:01:46.286Z,1.30
2022-09-04T14:04:39.173Z,1.60
2022-09-04T14:07:29.673Z,1.63
2022-09-04T14:10:25.631Z,1.35
2022-09-04T14:13:41.551Z,1.40
2022-09-04T14:16:26.969Z,1.20
2022-09-04T14:19:24.424Z,1.15
2022-09-04T14:22:24.309Z,1.08
2022-09-04T14:25:21.878Z,1.42
2022-09-04T14:28:16.356Z,1.33
2022-09-04T14:31:24.262Z,1.42
2022-09-04T14:34:36.181Z,1.60
2022-09-04T14:38:00.140Z,1.50
2022-09-04T14:41:36.292Z,1.40
2022-09-04T14:44:50.895Z,1.35
2022-09-04T14:47:54.747Z,1.10
2022-09-04T14:50:48.878Z,1.30
2022-09-04T14:53:35.522Z,1.20
2022-09-04T14:56:41.196Z,1.33
2022-09-04T14:59:35.698Z,1.38
2022-09-04T15:02:34.162Z,1.42
2022-09-04T15:05:28.975Z,1.33
2022-09-04T15:08:34.648Z,1.33
2022-09-04T15:11:33.280Z,1.35
2022-09-04T15:14:33.097Z,1.10
2022-09-04T15:17:28.278Z,1.17
2022-09-04T15:20:22.529Z,1.33
2022-09-04T15:23:22.265Z,1.20
2022-09-04T15:26:17.979Z,1.42
2022-09-04T15:29:37.285Z,1.38
2022-09-04T15:32:26.055Z,1.17
2022-09-04T15:35:20.936Z,1.50
2022-09-04T15:38:25.409Z,1.67
2022-09-04T15:41:19.776Z,1.30
2022-09-04T15:44:20.045Z,1.10
2022-09-04T15:47:36.607Z,1.10
2022-09-04T15:50:27.633Z,1.35
2022-09-04T15:53:32.197Z,1.25
2022-09-04T15:56:20.406Z,1.50
2022-09-04T15:59:18.147Z,1.38
2022-09-04T16:02:36.160Z,1.30
2022-09-04T16:05:41.171Z,1.30
2022-09-04T16:08:50.726Z,1.50
2022-09-04T16:11:42.581Z,1.48
2022-09-04T16:14:35.260Z,1.35
2022-09-04T16:17:28.622Z,2.00
2022-09-04T16:20:36.388Z,1.73
2022-09-04T16:23:49.591Z,1.50
2022-09-04T16:26:36.082Z,1.38
2022-09-04T16:29:35.807Z,1.40
2022-09-04T16:35:21.281Z,1.50
2022-09-04T16:38:19.941Z,1.30
2022-09-04T16:41:29.040Z,1.50
2022-09-04T16:44:27.461Z,1.55
2022-09-04T16:47:38.370Z,1.60
2022-09-04T16:50:37.662Z,1.27
2022-09-04T16:53:27.314Z,1.42
2022-09-04T16:56:36.804Z,1.42
2022-09-04T16:59:35.678Z,1.30
2022-09-04T17:02:37.463Z,1.38
2022-09-04T17:05:28.222Z,1.50
2022-09-04T17:08:39.941Z,1.60
2022-09-04T17:11:55.603Z,1.45
2022-09-04T17:14:50.673Z,1.38
2022-09-04T17:17:41.574Z,1.40
2022-09-04T17:23:08.802Z,1.40
2022-09-04T17:29:13.156Z,1.23
2022-09-04T17:29:14.610Z,1.50
2022-09-04T17:30:40.199Z,1.52
2022-09-04T17:40:30.442Z,1.42
2022-09-04T17:40:34.728Z,1.48
2022-09-04T17:40:48.576Z,1.50
2022-09-04T17:43:23.631Z,1.83
2022-09-04T17:46:38.952Z,1.60
2022-09-04T17:49:34.296Z,1.60
2022-09-04T17:52:32.839Z,1.70
2022-09-04T17:55:20.787Z,1.58
2022-09-04T17:58:11.577Z,1.85
2022-09-04T18:01:16.849Z,1.70
2022-09-04T18:04:27.627Z,1.67
2022-09-04T18:08:08.190Z,1.67
2022-09-04T18:10:39.758Z,1.55
2022-09-04T18:13:40.573Z,1.67
2022-09-04T18:17:11.659Z,1.80
2022-09-04T18:20:12.911Z,1.80
2022-09-04T18:23:51.365Z,1.80
2022-09-04T18:27:06.081Z,1.58
2022-09-04T18:33:25.320Z,1.60
2022-09-04T18:37:19.631Z,1.98
2022-09-04T18:37:26.030Z,1.98
2022-09-04T18:39:57.659Z,1.88
2022-09-04T18:50:20.300Z,1.90
2022-09-04T18:50:30.192Z,1.88
2022-09-04T18:50:48.580Z,1.83
2022-09-04T18:52:54.539Z,2.30
2022-09-04T18:55:46.024Z,1.80
2022-09-04T18:58:37.415Z,1.65
2022-09-04T19:02:01.798Z,1.65
2022-09-04T19:04:51.090Z,1.80
2022-09-04T19:07:51.646Z,1.80
2022-09-04T19:10:43.360Z,1.98
2022-09-04T19:13:50.398Z,1.95
2022-09-04T19:16:44.805Z,1.70
2022-09-04T19:19:51.509Z,2.28
2022-09-04T19:22:44.439Z,2.03
2022-09-04T19:25:40.377Z,2.05
2022-09-04T19:28:53.228Z,2.05
2022-09-04T19:31:49.285Z,2.22
2022-09-04T19:35:02.955Z,2.42
2022-09-04T19:40:49.148Z,1.90
2022-09-04T19:45:59.170Z,2.35
2022-09-04T19:46:13.768Z,2.22
2022-09-04T19:47:43.963Z,2.40
2022-09-04T19:53:19.706Z,2.05
2022-09-04T19:54:02.396Z,2.30
2022-09-04T19:57:31.189Z,1.98
2022-09-04T20:00:33.012Z,2.33
2022-09-04T20:03:45.690Z,2.05
2022-09-04T20:06:36.409Z,1.92
2022-09-04T20:09:44.425Z,1.67
2022-09-04T20:12:43.977Z,1.95
2022-09-04T20:15:45.560Z,2.40
2022-09-04T20:18:40.035Z,2.03
2022-09-04T20:21:43.677Z,1.98
2022-09-04T20:25:01.618Z,2.05
2022-09-04T20:27:54.135Z,2.00
2022-09-04T20:30:46.614Z,2.38
2022-09-04T20:33:35.616Z,1.98
2022-09-04T20:36:29.111Z,2.70
2022-09-04T20:39:34.903Z,2.00
2022-09-04T20:42:28.752Z,2.63
2022-09-04T20:49:44.784Z,2.00
2022-09-04T20:52:55.458Z,2.10
2022-09-04T20:52:57.425Z,2.30
2022-09-04T20:55:32.439Z,2.33
2022-09-04T21:02:41.017Z,2.08
2022-09-04T21:03:17.388Z,2.25
2022-09-04T21:05:20.366Z,2.05
2022-09-04T21:08:13.588Z,2.05
2022-09-04T21:11:38.906Z,2.25
2022-09-04T21:14:18.682Z,2.17
2022-09-04T21:17:34.061Z,2.08
2022-09-04T21:21:06.807Z,2.20
2022-09-04T21:24:07.918Z,2.10
2022-09-04T21:27:01.775Z,2.30
2022-09-04T21:29:59.276Z,2.63
2022-09-04T21:33:28.404Z,2.42
2022-09-04T21:36:30.025Z,2.67
2022-09-04T21:39:18.499Z,3.15
2022-09-04T21:42:33.982Z,2.42
2022-09-04T21:45:25.949Z,2.58
2022-09-04T21:48:37.172Z,2.22
2022-09-04T21:51:51.514Z,2.50
2022-09-04T21:58:00.473Z,2.30
2022-09-04T22:02:28.550Z,2.10
2022-09-04T22:02:42.824Z,2.20
2022-09-04T22:05:22.456Z,2.40
2022-09-04T22:13:29.893Z,2.55
2022-09-04T22:13:37.379Z,2.35
2022-09-04T22:15:41.486Z,2.58
2022-09-04T22:18:45.265Z,2.40
2022-09-04T22:22:06.310Z,2.10
2022-09-04T22:25:18.965Z,2.58
2022-09-04T22:28:32.113Z,2.38
2022-09-04T22:31:29.941Z,2.78
2022-09-04T22:34:26.054Z,2.33
2022-09-04T22:37:54.076Z,2.83
2022-09-04T22:40:56.879Z,2.72
2022-09-04T22:43:52.518Z,2.80
2022-09-04T22:46:43.814Z,2.80
2022-09-04T22:49:41.396Z,2.50
2022-09-04T22:52:45.142Z,2.97
2022-09-04T22:56:09.847Z,3.35
2022-09-04T22:59:26.751Z,2.97
2022-09-04T23:03:20.895Z,3.10
2022-09-04T23:07:56.126Z,3.20
2022-09-04T23:13:42.308Z,3.20
2022-09-04T23:13:56.343Z,3.22
2022-09-04T23:16:39.589Z,3.08
2022-09-04T23:25:44.189Z,3.22
2022-09-04T23:26:46.044Z,2.90
2022-09-04T23:26:59.881Z,2.60
2022-09-04T23:30:26.563Z,2.97
2022-09-04T23:33:32.069Z,2.80
2022-09-04T23:36:36.802Z,3.10
2022-09-04T23:39:34.780Z,3.10
2022-09-04T23:42:48.216Z,2.85
2022-09-04T23:46:08.212Z,2.72
2022-09-04T23:49:11.672Z,3.30
2022-09-04T23:52:15.878Z,2.83
2022-09-04T23:55:45.048Z,2.97
2022-09-04T23:59:05.979Z,2.92
